ZEM weather

Eastmain River Airport
Eastmain River, Quebec, Canada

Public forecast

Using degrees Celsius for public forecast. Weather courtesy of forecast.io.

METAR (pilot weather report)

Report is more than 6 hours old.

Retrieved 2019/05/24 20:00 UTC (1 day ago):

CZEM 242000Z 31010G15KT 15SM SCT006 02/M02 A3026 RMK SC3 LAST STFD OBS/NEXT 261400 UTC SLP250

TAF (pilot weather forecast)

Forecast is more than 12 hours old.

Closest forecast is Waskaganish Airport, 46.1 nm (85.3 km) S. Retrieved 2019/05/24 15:00 UTC (1 day ago):

TAF CYKQ 241438Z 2415/2421 31008KT P6SM OVC010 TEMPO 2415/2418 3SM -SN OVC008 FM241800 31010KT P6SM SCT010 RMK NXT FCST WILL BE ISSUED AT 251445Z